Turnerville, Georgia
Current Conditions -  °F | °C
As of 11:55 AM on Saturday 22 Nov 2014 (Local Time) from KTOC Reporting Station
Scattered Clouds Scattered Clouds  
Wind Chill: 50°   Ceiling: Unl
Heat Index: 50°   Visibility: 10mi
Dew Point: 23°   Wind: 5mph
Humidity: 35%   Direction: 90°E
Pressure: 30.47"   Gusts: NA
Location:  34.69°N, 83.43°W
Report Text: KTOC 221655Z AUTO 09004KT 10SM SCT044 10/M05 A3047 RMK AO2 T01011049
Loading
Personal Weather Stations






























Interactive Weather Map New forecast layout! Learn more

10-Day Weather Forecast

Advertisements
Track Severe Weather on mobile